T/b Polar Slep — 3YCF — position and weather

sailwx.info

Track history (hours):
 
Tides and Currents Weather Stations Pressure Air Temp Water Temp Dewpoint Dewpoint Depression Visibility Wind Speed Wind Dir Waves Ship Positions

T/b Polar Slep

Last reported at 2014-Oct-01 04:32 UTC. Time now 2014-Oct-01 10:29 UTC.
Position N 69°40' E 018°58'.

Length 16 m; draft 2.2 m.

Type: Towing. MMSI: 258354500.

Date/timePositionNaut miles runAvg speedWind from/ knotsBaromVisibWave heightAir tempDewpointWater temp
2014-Oct-01 04:32N 69°40' E 018°58'0 0.0
2014-Oct-01 03:33N 69°40' E 018°58'0 0.0
2014-Oct-01 02:33N 69°40' E 018°58'0 0.0
2014-Oct-01 01:33N 69°40' E 018°58'0 0.0
2014-Oct-01 00:28N 69°40' E 018°58'0 0.0
2014-Sep-30 23:32N 69°40' E 018°58'0 0.0
2014-Sep-30 22:33N 69°40' E 018°58'0 0.0
2014-Sep-30 21:32N 69°40' E 018°58'0 0.0
2014-Sep-30 20:18N 69°40' E 018°58'0 0.0
2014-Sep-30 19:22N 69°40' E 018°58'0 0.0
2014-Sep-30 18:34N 69°40' E 018°58'0 0.0
2014-Sep-30 17:33N 69°40' E 018°58'3 1.3
2014-Sep-30 15:18N 69°43' E 019°01'0 0.0
2014-Sep-30 05:07N 69°42' E 019°02'3 4.6
2014-Sep-30 04:34N 69°40' E 018°58'0 0.0
2014-Sep-30 03:34N 69°40' E 018°58'0 0.0
2014-Sep-30 02:34N 69°40' E 018°58'0 0.0
2014-Sep-30 01:33N 69°40' E 018°58'0 0.0
2014-Sep-30 00:33N 69°40' E 018°58'0 0.0
2014-Sep-29 23:33N 69°40' E 018°58'0 0.0
2014-Sep-29 22:33N 69°40' E 018°58'0 0.0
2014-Sep-29 21:34N 69°40' E 018°58'0 0.0
2014-Sep-29 20:34N 69°40' E 018°58'0 0.0
2014-Sep-29 19:33N 69°40' E 018°58'0 0.0
2014-Sep-29 18:34N 69°40' E 018°58'0 0.0
2014-Sep-29 17:33N 69°40' E 018°58'0 0.4
2014-Sep-29 16:33N 69°40' E 018°59'0 0.3
2014-Sep-29 15:29N 69°40' E 018°58'0 0.0
2014-Sep-29 14:33N 69°40' E 018°58'2 1.6
2014-Sep-29 13:14N 69°42' E 018°55'4 0.5
2014-Sep-29 06:20N 69°40' E 018°45'0 0.0
2014-Sep-29 05:33N 69°40' E 018°45'0 0.0
2014-Sep-29 04:13N 69°40' E 018°45'0 0.0
2014-Sep-29 03:04N 69°40' E 018°45'0 0.0
2014-Sep-29 02:28N 69°40' E 018°45'0 0.0
2014-Sep-29 01:20N 69°40' E 018°45'0 0.0
2014-Sep-29 00:33N 69°40' E 018°45'0 0.0
2014-Sep-28 23:31N 69°40' E 018°45'0 0.0
2014-Sep-28 22:32N 69°40' E 018°45'0 0.0
2014-Sep-28 21:33N 69°40' E 018°45'0 0.0
2014-Sep-28 19:33N 69°40' E 018°45'0 0.0
2014-Sep-28 18:33N 69°40' E 018°45'0 0.0
2014-Sep-28 17:33N 69°40' E 018°45'0 0.0
2014-Sep-28 16:33N 69°40' E 018°45'0 0.0
2014-Sep-28 15:32N 69°40' E 018°45'0 0.0
2014-Sep-28 14:03N 69°40' E 018°45'0 0.0
2014-Sep-28 13:32N 69°40' E 018°45'0 0.0
2014-Sep-28 12:33N 69°40' E 018°45'0 0.0
2014-Sep-28 11:33N 69°40' E 018°45'0 0.0
2014-Sep-28 10:33N 69°40' E 018°45'0 0.0
2014-Sep-28 09:25N 69°40' E 018°45'0 0.0
2014-Sep-28 08:31N 69°40' E 018°45'0 0.0
2014-Sep-28 07:32N 69°40' E 018°45'0 0.0
2014-Sep-28 04:15N 69°40' E 018°45'0 0.0
2014-Sep-28 03:20N 69°40' E 018°45'0 0.0
2014-Sep-28 00:04N 69°40' E 018°45'0 0.0
2014-Sep-27 22:20N 69°40' E 018°45'0 0.0
2014-Sep-27 21:32N 69°40' E 018°45'0 0.0
2014-Sep-27 20:33N 69°40' E 018°45'0 0.0
2014-Sep-27 12:29N 69°40' E 018°45'0 0.0
2014-Sep-27 11:33N 69°40' E 018°45'0 0.0
2014-Sep-27 08:33N 69°40' E 018°45'0 0.0
2014-Sep-27 07:06N 69°40' E 018°45'0 0.0
2014-Sep-27 02:32N 69°40' E 018°45'0 0.0
2014-Sep-27 00:31N 69°40' E 018°45'0 0.0
2014-Sep-26 23:33N 69°40' E 018°45'0 0.0
2014-Sep-26 22:33N 69°40' E 018°45'0 0.0
2014-Sep-26 21:33N 69°40' E 018°45'0 0.0
2014-Sep-26 20:33N 69°40' E 018°45'0 0.0
2014-Sep-26 19:33N 69°40' E 018°45'0 0.0
2014-Sep-26 18:33N 69°40' E 018°45'0 0.0
2014-Sep-26 17:30N 69°40' E 018°45'0 0.0
2014-Sep-26 16:33N 69°40' E 018°45'0 0.0
2014-Sep-26 15:33N 69°40' E 018°45'0 0.0
2014-Sep-26 14:28N 69°40' E 018°45'0 0.0
2014-Sep-26 13:32N 69°40' E 018°45'0 0.0
2014-Sep-26 07:11N 69°40' E 018°45'0 0.0
2014-Sep-26 05:18N 69°40' E 018°45'0 0.0
2014-Sep-26 04:31N 69°40' E 018°45'0 0.0
2014-Sep-25 23:10N 69°40' E 018°45'0 0.0
2014-Sep-25 22:29N 69°40' E 018°45'0 0.0
2014-Sep-25 21:32N 69°40' E 018°45'0 0.0
2014-Sep-25 19:19N 69°40' E 018°45'0 0.0
2014-Sep-25 18:28N 69°40' E 018°45'0 0.0
2014-Sep-25 17:18N 69°40' E 018°45'0 0.0
2014-Sep-25 09:28N 69°40' E 018°45'0 0.0
2014-Sep-25 08:20N 69°40' E 018°45'0 0.0
2014-Sep-25 07:32N 69°40' E 018°45'0 0.0
2014-Sep-24 18:04N 69°40' E 018°45'0 0.0
2014-Sep-24 07:15N 69°40' E 018°45'0 0.0
2014-Sep-24 06:29N 69°40' E 018°45'0 0.0
2014-Sep-24 05:31N 69°40' E 018°45'0 0.0
2014-Sep-24 04:29N 69°40' E 018°45'0 0.0
2014-Sep-24 01:33N 69°40' E 018°45'0 0.0
2014-Sep-24 00:31N 69°40' E 018°45'0 0.0
2014-Sep-23 23:25N 69°40' E 018°45'0 0.0
2014-Sep-23 22:29N 69°40' E 018°45'0 0.0
2014-Sep-23 21:33N 69°40' E 018°45'0 0.0
2014-Sep-23 20:33N 69°40' E 018°45'0 0.0
2014-Sep-23 19:29N 69°40' E 018°45'0 0.0
2014-Sep-23 18:33N 69°40' E 018°45'0 0.0
2014-Sep-23 17:33N 69°40' E 018°45'0 0.0
2014-Sep-22 19:24N 69°40' E 018°45'0 0.0
2014-Sep-22 18:18N 69°40' E 018°45'0 0.0
2014-Sep-22 17:33N 69°40' E 018°45'0 0.0
2014-Sep-22 16:29N 69°40' E 018°45'0 0.0
2014-Sep-22 03:29N 69°40' E 018°45'0 0.0
2014-Sep-22 02:33N 69°40' E 018°45'0 0.0
2014-Sep-22 01:29N 69°40' E 018°45'0 0.0
2014-Sep-22 00:07N 69°40' E 018°45'0 0.0
2014-Sep-21 23:31N 69°40' E 018°45'0 0.0
2014-Sep-21 22:32N 69°40' E 018°45'0 0.0
2014-Sep-21 21:31N 69°40' E 018°45'0 0.0
2014-Sep-21 20:32N 69°40' E 018°45'0 0.0
2014-Sep-21 19:33N 69°40' E 018°45'0 0.0
2014-Sep-21 18:33N 69°40' E 018°45'0 0.0
2014-Sep-21 17:32N 69°40' E 018°45'0 0.0
2014-Sep-21 16:07N 69°40' E 018°45'0 0.0
2014-Sep-21 15:32N 69°40' E 018°45'0 0.0
2014-Sep-21 14:32N 69°40' E 018°45'0 0.0
2014-Sep-21 12:30N 69°40' E 018°45'0 0.0
2014-Sep-21 07:22N 69°40' E 018°45'0 0.0
2014-Sep-21 06:30N 69°40' E 018°45'0 0.0
2014-Sep-21 05:33N 69°40' E 018°45'0 0.0
2014-Sep-21 04:33N 69°40' E 018°45'  
Track history (hours):
 
Tides and Currents Weather Stations Pressure Air Temp Water Temp Dewpoint Dewpoint Depression Visibility Wind Speed Wind Dir Waves Ship Positions

T/b Polar Slep

Last reported at 2014-Oct-01 04:32 UTC. Time now 2014-Oct-01 10:29 UTC.
Position N 69°40' E 018°58'.

Length 16 m; draft 2.2 m.

Type: Towing. MMSI: 258354500.

Date/timePositionNaut miles runAvg speedWind from/ knotsBaromVisibWave heightAir tempDewpointWater temp
2014-Oct-01 04:32N 69°40' E 018°58'0 0.0
2014-Oct-01 03:33N 69°40' E 018°58'0 0.0
2014-Oct-01 02:33N 69°40' E 018°58'0 0.0
2014-Oct-01 01:33N 69°40' E 018°58'0 0.0
2014-Oct-01 00:28N 69°40' E 018°58'0 0.0
2014-Sep-30 23:32N 69°40' E 018°58'0 0.0
2014-Sep-30 22:33N 69°40' E 018°58'0 0.0
2014-Sep-30 21:32N 69°40' E 018°58'0 0.0
2014-Sep-30 20:18N 69°40' E 018°58'0 0.0
2014-Sep-30 19:22N 69°40' E 018°58'0 0.0
2014-Sep-30 18:34N 69°40' E 018°58'0 0.0
2014-Sep-30 17:33N 69°40' E 018°58'3 1.3
2014-Sep-30 15:18N 69°43' E 019°01'0 0.0
2014-Sep-30 05:07N 69°42' E 019°02'3 4.6
2014-Sep-30 04:34N 69°40' E 018°58'0 0.0
2014-Sep-30 03:34N 69°40' E 018°58'0 0.0
2014-Sep-30 02:34N 69°40' E 018°58'0 0.0
2014-Sep-30 01:33N 69°40' E 018°58'0 0.0
2014-Sep-30 00:33N 69°40' E 018°58'0 0.0
2014-Sep-29 23:33N 69°40' E 018°58'0 0.0
2014-Sep-29 22:33N 69°40' E 018°58'0 0.0
2014-Sep-29 21:34N 69°40' E 018°58'0 0.0
2014-Sep-29 20:34N 69°40' E 018°58'0 0.0
2014-Sep-29 19:33N 69°40' E 018°58'0 0.0
2014-Sep-29 18:34N 69°40' E 018°58'0 0.0
2014-Sep-29 17:33N 69°40' E 018°58'0 0.4
2014-Sep-29 16:33N 69°40' E 018°59'0 0.3
2014-Sep-29 15:29N 69°40' E 018°58'0 0.0
2014-Sep-29 14:33N 69°40' E 018°58'2 1.6
2014-Sep-29 13:14N 69°42' E 018°55'4 0.5
2014-Sep-29 06:20N 69°40' E 018°45'0 0.0
2014-Sep-29 05:33N 69°40' E 018°45'0 0.0
2014-Sep-29 04:13N 69°40' E 018°45'0 0.0
2014-Sep-29 03:04N 69°40' E 018°45'0 0.0
2014-Sep-29 02:28N 69°40' E 018°45'0 0.0
2014-Sep-29 01:20N 69°40' E 018°45'0 0.0
2014-Sep-29 00:33N 69°40' E 018°45'0 0.0
2014-Sep-28 23:31N 69°40' E 018°45'0 0.0
2014-Sep-28 22:32N 69°40' E 018°45'0 0.0
2014-Sep-28 21:33N 69°40' E 018°45'0 0.0
2014-Sep-28 19:33N 69°40' E 018°45'0 0.0
2014-Sep-28 18:33N 69°40' E 018°45'0 0.0
2014-Sep-28 17:33N 69°40' E 018°45'0 0.0
2014-Sep-28 16:33N 69°40' E 018°45'0 0.0
2014-Sep-28 15:32N 69°40' E 018°45'0 0.0
2014-Sep-28 14:03N 69°40' E 018°45'0 0.0
2014-Sep-28 13:32N 69°40' E 018°45'0 0.0
2014-Sep-28 12:33N 69°40' E 018°45'0 0.0
2014-Sep-28 11:33N 69°40' E 018°45'0 0.0
2014-Sep-28 10:33N 69°40' E 018°45'0 0.0
2014-Sep-28 09:25N 69°40' E 018°45'0 0.0
2014-Sep-28 08:31N 69°40' E 018°45'0 0.0
2014-Sep-28 07:32N 69°40' E 018°45'0 0.0
2014-Sep-28 04:15N 69°40' E 018°45'0 0.0
2014-Sep-28 03:20N 69°40' E 018°45'0 0.0
2014-Sep-28 00:04N 69°40' E 018°45'0 0.0
2014-Sep-27 22:20N 69°40' E 018°45'0 0.0
2014-Sep-27 21:32N 69°40' E 018°45'0 0.0
2014-Sep-27 20:33N 69°40' E 018°45'0 0.0
2014-Sep-27 12:29N 69°40' E 018°45'0 0.0
2014-Sep-27 11:33N 69°40' E 018°45'0 0.0
2014-Sep-27 08:33N 69°40' E 018°45'0 0.0
2014-Sep-27 07:06N 69°40' E 018°45'0 0.0
2014-Sep-27 02:32N 69°40' E 018°45'0 0.0
2014-Sep-27 00:31N 69°40' E 018°45'0 0.0
2014-Sep-26 23:33N 69°40' E 018°45'0 0.0
2014-Sep-26 22:33N 69°40' E 018°45'0 0.0
2014-Sep-26 21:33N 69°40' E 018°45'0 0.0
2014-Sep-26 20:33N 69°40' E 018°45'0 0.0
2014-Sep-26 19:33N 69°40' E 018°45'0 0.0
2014-Sep-26 18:33N 69°40' E 018°45'0 0.0
2014-Sep-26 17:30N 69°40' E 018°45'0 0.0
2014-Sep-26 16:33N 69°40' E 018°45'0 0.0
2014-Sep-26 15:33N 69°40' E 018°45'0 0.0
2014-Sep-26 14:28N 69°40' E 018°45'0 0.0
2014-Sep-26 13:32N 69°40' E 018°45'0 0.0
2014-Sep-26 07:11N 69°40' E 018°45'0 0.0
2014-Sep-26 05:18N 69°40' E 018°45'0 0.0
2014-Sep-26 04:31N 69°40' E 018°45'0 0.0
2014-Sep-25 23:10N 69°40' E 018°45'0 0.0
2014-Sep-25 22:29N 69°40' E 018°45'0 0.0
2014-Sep-25 21:32N 69°40' E 018°45'0 0.0
2014-Sep-25 19:19N 69°40' E 018°45'0 0.0
2014-Sep-25 18:28N 69°40' E 018°45'0 0.0
2014-Sep-25 17:18N 69°40' E 018°45'0 0.0
2014-Sep-25 09:28N 69°40' E 018°45'0 0.0
2014-Sep-25 08:20N 69°40' E 018°45'0 0.0
2014-Sep-25 07:32N 69°40' E 018°45'0 0.0
2014-Sep-24 18:04N 69°40' E 018°45'0 0.0
2014-Sep-24 07:15N 69°40' E 018°45'0 0.0
2014-Sep-24 06:29N 69°40' E 018°45'0 0.0
2014-Sep-24 05:31N 69°40' E 018°45'0 0.0
2014-Sep-24 04:29N 69°40' E 018°45'0 0.0
2014-Sep-24 01:33N 69°40' E 018°45'0 0.0
2014-Sep-24 00:31N 69°40' E 018°45'0 0.0
2014-Sep-23 23:25N 69°40' E 018°45'0 0.0
2014-Sep-23 22:29N 69°40' E 018°45'0 0.0
2014-Sep-23 21:33N 69°40' E 018°45'0 0.0
2014-Sep-23 20:33N 69°40' E 018°45'0 0.0
2014-Sep-23 19:29N 69°40' E 018°45'0 0.0
2014-Sep-23 18:33N 69°40' E 018°45'0 0.0
2014-Sep-23 17:33N 69°40' E 018°45'0 0.0
2014-Sep-22 19:24N 69°40' E 018°45'0 0.0
2014-Sep-22 18:18N 69°40' E 018°45'0 0.0
2014-Sep-22 17:33N 69°40' E 018°45'0 0.0
2014-Sep-22 16:29N 69°40' E 018°45'0 0.0
2014-Sep-22 03:29N 69°40' E 018°45'0 0.0
2014-Sep-22 02:33N 69°40' E 018°45'0 0.0
2014-Sep-22 01:29N 69°40' E 018°45'0 0.0
2014-Sep-22 00:07N 69°40' E 018°45'0 0.0
2014-Sep-21 23:31N 69°40' E 018°45'0 0.0
2014-Sep-21 22:32N 69°40' E 018°45'0 0.0
2014-Sep-21 21:31N 69°40' E 018°45'0 0.0
2014-Sep-21 20:32N 69°40' E 018°45'0 0.0
2014-Sep-21 19:33N 69°40' E 018°45'0 0.0
2014-Sep-21 18:33N 69°40' E 018°45'0 0.0
2014-Sep-21 17:32N 69°40' E 018°45'0 0.0
2014-Sep-21 16:07N 69°40' E 018°45'0 0.0
2014-Sep-21 15:32N 69°40' E 018°45'0 0.0
2014-Sep-21 14:32N 69°40' E 018°45'0 0.0
2014-Sep-21 12:30N 69°40' E 018°45'0 0.0
2014-Sep-21 07:22N 69°40' E 018°45'0 0.0
2014-Sep-21 06:30N 69°40' E 018°45'0 0.0
2014-Sep-21 05:33N 69°40' E 018°45'0 0.0
2014-Sep-21 04:33N 69°40' E 018°45'  

Dump ship's entire track history